sensor_id;sensor_type;location;lat;lon;timestamp;P1;durP1;ratioP1;P2;durP2;ratioP2
6077;SDS011;3067;49.470;10.394;2023-12-07T00:01:42;11.30;;;7.60;;
6077;SDS011;3067;49.470;10.394;2023-12-07T00:04:09;12.63;;;8.00;;
6077;SDS011;3067;49.470;10.394;2023-12-07T00:06:36;15.40;;;7.80;;
6077;SDS011;3067;49.470;10.394;2023-12-07T00:09:03;14.33;;;8.17;;
6077;SDS011;3067;49.470;10.394;2023-12-07T00:11:32;10.80;;;7.67;;
6077;SDS011;3067;49.470;10.394;2023-12-07T00:13:59;13.80;;;7.63;;
6077;SDS011;3067;49.470;10.394;2023-12-07T00:16:26;24.20;;;7.90;;
6077;SDS011;3067;49.470;10.394;2023-12-07T00:18:53;12.80;;;7.87;;
6077;SDS011;3067;49.470;10.394;2023-12-07T00:21:20;12.57;;;7.47;;
6077;SDS011;3067;49.470;10.394;2023-12-07T00:23:47;15.90;;;8.23;;
6077;SDS011;3067;49.470;10.394;2023-12-07T00:26:14;16.00;;;8.33;;
6077;SDS011;3067;49.470;10.394;2023-12-07T00:28:42;14.07;;;8.63;;
6077;SDS011;3067;49.470;10.394;2023-12-07T00:31:10;11.13;;;8.40;;
6077;SDS011;3067;49.470;10.394;2023-12-07T00:33:38;15.50;;;8.17;;
6077;SDS011;3067;49.470;10.394;2023-12-07T00:36:05;13.40;;;8.13;;
6077;SDS011;3067;49.470;10.394;2023-12-07T00:38:33;15.70;;;8.37;;
6077;SDS011;3067;49.470;10.394;2023-12-07T00:41:01;15.40;;;8.70;;
6077;SDS011;3067;49.470;10.394;2023-12-07T00:43:28;11.73;;;8.03;;
6077;SDS011;3067;49.470;10.394;2023-12-07T00:45:56;11.80;;;8.13;;
6077;SDS011;3067;49.470;10.394;2023-12-07T00:48:23;12.20;;;8.73;;
6077;SDS011;3067;49.470;10.394;2023-12-07T00:50:50;14.23;;;9.30;;
6077;SDS011;3067;49.470;10.394;2023-12-07T00:53:18;12.83;;;8.77;;
6077;SDS011;3067;49.470;10.394;2023-12-07T00:55:45;13.30;;;8.63;;
6077;SDS011;3067;49.470;10.394;2023-12-07T00:58:12;19.23;;;9.10;;
6077;SDS011;3067;49.470;10.394;2023-12-07T01:00:39;16.73;;;9.53;;
6077;SDS011;3067;49.470;10.394;2023-12-07T01:03:07;16.30;;;8.90;;
6077;SDS011;3067;49.470;10.394;2023-12-07T01:05:34;17.87;;;9.87;;
6077;SDS011;3067;49.470;10.394;2023-12-07T01:08:01;14.77;;;9.23;;
6077;SDS011;3067;49.470;10.394;2023-12-07T01:10:29;17.20;;;9.60;;
6077;SDS011;3067;49.470;10.394;2023-12-07T01:12:57;14.17;;;9.00;;
6077;SDS011;3067;49.470;10.394;2023-12-07T01:15:24;18.53;;;9.90;;
6077;SDS011;3067;49.470;10.394;2023-12-07T01:17:51;18.63;;;10.80;;
6077;SDS011;3067;49.470;10.394;2023-12-07T01:20:19;22.10;;;11.37;;
6077;SDS011;3067;49.470;10.394;2023-12-07T01:22:46;21.27;;;11.03;;
6077;SDS011;3067;49.470;10.394;2023-12-07T01:25:13;17.43;;;10.90;;
6077;SDS011;3067;49.470;10.394;2023-12-07T01:27:45;21.83;;;11.67;;
6077;SDS011;3067;49.470;10.394;2023-12-07T01:30:12;22.57;;;12.00;;
6077;SDS011;3067;49.470;10.394;2023-12-07T01:32:39;23.37;;;12.00;;
6077;SDS011;3067;49.470;10.394;2023-12-07T01:35:07;18.33;;;10.97;;
6077;SDS011;3067;49.470;10.394;2023-12-07T01:37:36;22.13;;;11.73;;
6077;SDS011;3067;49.470;10.394;2023-12-07T01:40:03;19.03;;;11.00;;
6077;SDS011;3067;49.470;10.394;2023-12-07T01:42:35;23.57;;;11.53;;
6077;SDS011;3067;49.470;10.394;2023-12-07T01:45:02;20.00;;;11.43;;
6077;SDS011;3067;49.470;10.394;2023-12-07T01:47:30;22.43;;;11.00;;
6077;SDS011;3067;49.470;10.394;2023-12-07T01:50:00;20.27;;;12.00;;
6077;SDS011;3067;49.470;10.394;2023-12-07T01:52:29;20.00;;;11.63;;
6077;SDS011;3067;49.470;10.394;2023-12-07T01:54:59;19.90;;;10.50;;
6077;SDS011;3067;49.470;10.394;2023-12-07T01:57:26;25.40;;;12.50;;
6077;SDS011;3067;49.470;10.394;2023-12-07T01:59:53;24.77;;;12.83;;
6077;SDS011;3067;49.470;10.394;2023-12-07T02:02:21;24.43;;;12.17;;
6077;SDS011;3067;49.470;10.394;2023-12-07T02:04:48;25.53;;;12.50;;
6077;SDS011;3067;49.470;10.394;2023-12-07T02:07:15;22.10;;;11.10;;
6077;SDS011;3067;49.470;10.394;2023-12-07T02:09:44;21.73;;;11.90;;
6077;SDS011;3067;49.470;10.394;2023-12-07T02:12:13;21.93;;;12.57;;
6077;SDS011;3067;49.470;10.394;2023-12-07T02:14:40;20.13;;;11.90;;
6077;SDS011;3067;49.470;10.394;2023-12-07T02:17:09;27.03;;;12.37;;
6077;SDS011;3067;49.470;10.394;2023-12-07T02:19:47;23.90;;;12.87;;
6077;SDS011;3067;49.470;10.394;2023-12-07T02:22:21;22.67;;;12.50;;
6077;SDS011;3067;49.470;10.394;2023-12-07T02:24:57;19.40;;;10.80;;
6077;SDS011;3067;49.470;10.394;2023-12-07T02:27:36;21.20;;;12.10;;
6077;SDS011;3067;49.470;10.394;2023-12-07T02:30:05;18.67;;;11.17;;
6077;SDS011;3067;49.470;10.394;2023-12-07T02:32:33;21.07;;;12.10;;
6077;SDS011;3067;49.470;10.394;2023-12-07T02:35:00;19.20;;;11.83;;
6077;SDS011;3067;49.470;10.394;2023-12-07T02:37:28;18.87;;;11.30;;
6077;SDS011;3067;49.470;10.394;2023-12-07T02:39:59;24.60;;;11.93;;
6077;SDS011;3067;49.470;10.394;2023-12-07T02:42:29;28.47;;;12.03;;
6077;SDS011;3067;49.470;10.394;2023-12-07T02:45:01;17.83;;;11.10;;
6077;SDS011;3067;49.470;10.394;2023-12-07T02:47:29;20.30;;;11.53;;
6077;SDS011;3067;49.470;10.394;2023-12-07T02:49:56;19.40;;;11.17;;
6077;SDS011;3067;49.470;10.394;2023-12-07T02:52:24;19.37;;;11.73;;
6077;SDS011;3067;49.470;10.394;2023-12-07T02:54:51;22.90;;;12.57;;
6077;SDS011;3067;49.470;10.394;2023-12-07T02:57:18;20.70;;;12.80;;
6077;SDS011;3067;49.470;10.394;2023-12-07T02:59:45;21.00;;;12.07;;
6077;SDS011;3067;49.470;10.394;2023-12-07T03:02:13;24.10;;;12.47;;
6077;SDS011;3067;49.470;10.394;2023-12-07T03:04:40;22.57;;;13.23;;
6077;SDS011;3067;49.470;10.394;2023-12-07T03:07:07;26.17;;;12.53;;
6077;SDS011;3067;49.470;10.394;2023-12-07T03:09:35;20.30;;;11.57;;
6077;SDS011;3067;49.470;10.394;2023-12-07T03:12:02;21.13;;;12.53;;
6077;SDS011;3067;49.470;10.394;2023-12-07T03:14:29;22.40;;;12.37;;
6077;SDS011;3067;49.470;10.394;2023-12-07T03:16:56;22.27;;;12.33;;
6077;SDS011;3067;49.470;10.394;2023-12-07T03:19:24;23.13;;;11.57;;
6077;SDS011;3067;49.470;10.394;2023-12-07T03:21:51;21.23;;;11.70;;
6077;SDS011;3067;49.470;10.394;2023-12-07T03:24:18;25.13;;;12.07;;
6077;SDS011;3067;49.470;10.394;2023-12-07T03:26:45;21.93;;;12.37;;
6077;SDS011;3067;49.470;10.394;2023-12-07T03:29:13;22.20;;;13.20;;
6077;SDS011;3067;49.470;10.394;2023-12-07T03:31:40;25.70;;;12.80;;
6077;SDS011;3067;49.470;10.394;2023-12-07T03:34:07;22.63;;;13.10;;
6077;SDS011;3067;49.470;10.394;2023-12-07T03:36:35;21.80;;;12.90;;
6077;SDS011;3067;49.470;10.394;2023-12-07T03:39:02;24.93;;;12.90;;
6077;SDS011;3067;49.470;10.394;2023-12-07T03:41:30;22.30;;;13.23;;
6077;SDS011;3067;49.470;10.394;2023-12-07T03:43:57;26.70;;;13.30;;
6077;SDS011;3067;49.470;10.394;2023-12-07T03:46:24;21.80;;;12.33;;
6077;SDS011;3067;49.470;10.394;2023-12-07T03:48:51;20.63;;;13.03;;
6077;SDS011;3067;49.470;10.394;2023-12-07T03:51:18;22.67;;;12.63;;
6077;SDS011;3067;49.470;10.394;2023-12-07T03:53:46;22.87;;;12.80;;
6077;SDS011;3067;49.470;10.394;2023-12-07T03:56:22;22.33;;;11.13;;
6077;SDS011;3067;49.470;10.394;2023-12-07T03:58:49;22.20;;;12.27;;
6077;SDS011;3067;49.470;10.394;2023-12-07T04:01:16;21.67;;;11.80;;
6077;SDS011;3067;49.470;10.394;2023-12-07T04:03:43;27.63;;;12.60;;
6077;SDS011;3067;49.470;10.394;2023-12-07T04:06:11;29.70;;;11.93;;
6077;SDS011;3067;49.470;10.394;2023-12-07T04:08:38;22.13;;;12.67;;
6077;SDS011;3067;49.470;10.394;2023-12-07T04:11:07;20.10;;;11.70;;
6077;SDS011;3067;49.470;10.394;2023-12-07T04:13:34;18.57;;;11.60;;
6077;SDS011;3067;49.470;10.394;2023-12-07T04:16:01;25.40;;;11.97;;
6077;SDS011;3067;49.470;10.394;2023-12-07T04:18:29;17.43;;;11.00;;
6077;SDS011;3067;49.470;10.394;2023-12-07T04:20:56;21.07;;;11.30;;
6077;SDS011;3067;49.470;10.394;2023-12-07T04:23:23;20.10;;;12.23;;
6077;SDS011;3067;49.470;10.394;2023-12-07T04:25:50;17.07;;;10.93;;
6077;SDS011;3067;49.470;10.394;2023-12-07T04:28:18;18.90;;;11.10;;
6077;SDS011;3067;49.470;10.394;2023-12-07T04:30:46;19.63;;;11.50;;
6077;SDS011;3067;49.470;10.394;2023-12-07T04:33:13;17.40;;;10.97;;
6077;SDS011;3067;49.470;10.394;2023-12-07T04:35:40;17.57;;;11.77;;
6077;SDS011;3067;49.470;10.394;2023-12-07T04:38:07;18.30;;;11.30;;
6077;SDS011;3067;49.470;10.394;2023-12-07T04:40:34;23.33;;;12.13;;
6077;SDS011;3067;49.470;10.394;2023-12-07T04:43:02;20.07;;;11.80;;
6077;SDS011;3067;49.470;10.394;2023-12-07T04:45:31;19.83;;;12.07;;
6077;SDS011;3067;49.470;10.394;2023-12-07T04:47:58;20.63;;;10.77;;
6077;SDS011;3067;49.470;10.394;2023-12-07T04:50:25;19.60;;;10.90;;
6077;SDS011;3067;49.470;10.394;2023-12-07T04:52:52;20.90;;;10.77;;
6077;SDS011;3067;49.470;10.394;2023-12-07T04:55:19;17.50;;;10.80;;
6077;SDS011;3067;49.470;10.394;2023-12-07T04:57:47;21.57;;;11.17;;
6077;SDS011;3067;49.470;10.394;2023-12-07T05:00:14;18.50;;;10.83;;
6077;SDS011;3067;49.470;10.394;2023-12-07T05:02:43;21.03;;;11.13;;
6077;SDS011;3067;49.470;10.394;2023-12-07T05:05:10;19.53;;;11.93;;
6077;SDS011;3067;49.470;10.394;2023-12-07T05:07:37;19.47;;;11.10;;
6077;SDS011;3067;49.470;10.394;2023-12-07T05:10:04;20.13;;;11.40;;
6077;SDS011;3067;49.470;10.394;2023-12-07T05:12:31;18.90;;;11.33;;
6077;SDS011;3067;49.470;10.394;2023-12-07T05:14:59;18.33;;;11.10;;
6077;SDS011;3067;49.470;10.394;2023-12-07T05:17:26;19.70;;;11.63;;
6077;SDS011;3067;49.470;10.394;2023-12-07T05:19:54;19.03;;;12.07;;
6077;SDS011;3067;49.470;10.394;2023-12-07T05:22:21;22.17;;;12.70;;
6077;SDS011;3067;49.470;10.394;2023-12-07T05:24:48;23.33;;;12.30;;
6077;SDS011;3067;49.470;10.394;2023-12-07T05:27:16;18.90;;;12.50;;
6077;SDS011;3067;49.470;10.394;2023-12-07T05:29:43;18.77;;;12.07;;
6077;SDS011;3067;49.470;10.394;2023-12-07T05:32:10;20.43;;;12.60;;
6077;SDS011;3067;49.470;10.394;2023-12-07T05:34:37;28.20;;;12.80;;
6077;SDS011;3067;49.470;10.394;2023-12-07T05:37:06;19.23;;;11.30;;
6077;SDS011;3067;49.470;10.394;2023-12-07T05:39:33;19.97;;;12.30;;
6077;SDS011;3067;49.470;10.394;2023-12-07T05:42:00;19.00;;;11.43;;
6077;SDS011;3067;49.470;10.394;2023-12-07T05:44:29;22.87;;;13.40;;
6077;SDS011;3067;49.470;10.394;2023-12-07T05:46:56;23.80;;;12.40;;
6077;SDS011;3067;49.470;10.394;2023-12-07T05:49:23;25.93;;;13.70;;
6077;SDS011;3067;49.470;10.394;2023-12-07T05:51:51;17.97;;;11.17;;
6077;SDS011;3067;49.470;10.394;2023-12-07T05:54:20;20.77;;;12.23;;
6077;SDS011;3067;49.470;10.394;2023-12-07T05:56:47;22.87;;;12.90;;
6077;SDS011;3067;49.470;10.394;2023-12-07T05:59:14;23.33;;;12.43;;
6077;SDS011;3067;49.470;10.394;2023-12-07T06:01:41;20.33;;;11.43;;
6077;SDS011;3067;49.470;10.394;2023-12-07T06:04:09;21.30;;;11.40;;
6077;SDS011;3067;49.470;10.394;2023-12-07T06:06:37;21.00;;;11.53;;
6077;SDS011;3067;49.470;10.394;2023-12-07T06:09:04;19.40;;;12.00;;
6077;SDS011;3067;49.470;10.394;2023-12-07T06:11:33;22.53;;;12.40;;
6077;SDS011;3067;49.470;10.394;2023-12-07T06:14:00;20.50;;;12.07;;
6077;SDS011;3067;49.470;10.394;2023-12-07T06:16:28;21.43;;;12.03;;
6077;SDS011;3067;49.470;10.394;2023-12-07T06:18:55;21.00;;;11.93;;
6077;SDS011;3067;49.470;10.394;2023-12-07T06:21:22;22.40;;;12.27;;
6077;SDS011;3067;49.470;10.394;2023-12-07T06:23:50;24.23;;;12.30;;
6077;SDS011;3067;49.470;10.394;2023-12-07T06:26:18;17.97;;;11.07;;
6077;SDS011;3067;49.470;10.394;2023-12-07T06:28:46;25.93;;;12.10;;
6077;SDS011;3067;49.470;10.394;2023-12-07T06:31:13;19.67;;;11.83;;
6077;SDS011;3067;49.470;10.394;2023-12-07T06:33:41;19.70;;;11.67;;
6077;SDS011;3067;49.470;10.394;2023-12-07T06:36:08;30.97;;;13.87;;
6077;SDS011;3067;49.470;10.394;2023-12-07T06:38:36;24.70;;;13.33;;
6077;SDS011;3067;49.470;10.394;2023-12-07T06:41:03;21.97;;;12.37;;
6077;SDS011;3067;49.470;10.394;2023-12-07T06:43:30;24.70;;;12.53;;
6077;SDS011;3067;49.470;10.394;2023-12-07T06:45:59;25.50;;;12.83;;
6077;SDS011;3067;49.470;10.394;2023-12-07T06:48:26;22.70;;;12.83;;
6077;SDS011;3067;49.470;10.394;2023-12-07T06:50:53;24.23;;;13.13;;
6077;SDS011;3067;49.470;10.394;2023-12-07T06:53:20;25.73;;;13.97;;
6077;SDS011;3067;49.470;10.394;2023-12-07T06:55:47;27.17;;;14.50;;
6077;SDS011;3067;49.470;10.394;2023-12-07T06:58:14;24.33;;;13.50;;
6077;SDS011;3067;49.470;10.394;2023-12-07T07:00:41;26.93;;;13.50;;
6077;SDS011;3067;49.470;10.394;2023-12-07T07:03:10;24.83;;;13.47;;
6077;SDS011;3067;49.470;10.394;2023-12-07T07:05:37;29.20;;;13.13;;
6077;SDS011;3067;49.470;10.394;2023-12-07T07:08:04;29.97;;;13.17;;
6077;SDS011;3067;49.470;10.394;2023-12-07T07:10:32;30.50;;;13.30;;
6077;SDS011;3067;49.470;10.394;2023-12-07T07:13:00;29.10;;;13.40;;
6077;SDS011;3067;49.470;10.394;2023-12-07T07:15:28;29.93;;;13.60;;
6077;SDS011;3067;49.470;10.394;2023-12-07T07:17:55;25.70;;;13.73;;
6077;SDS011;3067;49.470;10.394;2023-12-07T07:20:23;22.93;;;13.40;;
6077;SDS011;3067;49.470;10.394;2023-12-07T07:22:51;24.13;;;12.83;;
6077;SDS011;3067;49.470;10.394;2023-12-07T07:25:18;25.23;;;13.00;;
6077;SDS011;3067;49.470;10.394;2023-12-07T07:27:45;29.20;;;14.50;;
6077;SDS011;3067;49.470;10.394;2023-12-07T07:30:12;29.63;;;14.17;;
6077;SDS011;3067;49.470;10.394;2023-12-07T07:32:39;24.43;;;13.33;;
6077;SDS011;3067;49.470;10.394;2023-12-07T07:35:07;24.60;;;12.90;;
6077;SDS011;3067;49.470;10.394;2023-12-07T07:37:38;24.73;;;13.47;;
6077;SDS011;3067;49.470;10.394;2023-12-07T07:40:07;26.73;;;13.37;;
6077;SDS011;3067;49.470;10.394;2023-12-07T07:42:36;26.83;;;14.00;;
6077;SDS011;3067;49.470;10.394;2023-12-07T07:45:05;27.87;;;13.87;;
6077;SDS011;3067;49.470;10.394;2023-12-07T07:47:33;25.70;;;13.83;;
6077;SDS011;3067;49.470;10.394;2023-12-07T07:50:00;28.60;;;14.67;;
6077;SDS011;3067;49.470;10.394;2023-12-07T07:52:30;33.30;;;15.30;;
6077;SDS011;3067;49.470;10.394;2023-12-07T07:55:00;26.17;;;14.47;;
6077;SDS011;3067;49.470;10.394;2023-12-07T07:57:28;29.23;;;15.77;;
6077;SDS011;3067;49.470;10.394;2023-12-07T07:59:55;35.67;;;15.30;;
6077;SDS011;3067;49.470;10.394;2023-12-07T08:02:22;37.27;;;15.83;;
6077;SDS011;3067;49.470;10.394;2023-12-07T08:04:50;28.83;;;15.20;;
6077;SDS011;3067;49.470;10.394;2023-12-07T08:07:17;34.17;;;16.90;;
6077;SDS011;3067;49.470;10.394;2023-12-07T08:09:45;29.47;;;15.33;;
6077;SDS011;3067;49.470;10.394;2023-12-07T08:12:13;32.70;;;15.67;;
6077;SDS011;3067;49.470;10.394;2023-12-07T08:14:40;33.20;;;14.40;;
6077;SDS011;3067;49.470;10.394;2023-12-07T08:17:08;35.43;;;16.20;;
6077;SDS011;3067;49.470;10.394;2023-12-07T08:19:36;33.90;;;15.40;;
6077;SDS011;3067;49.470;10.394;2023-12-07T08:22:04;31.73;;;15.37;;
6077;SDS011;3067;49.470;10.394;2023-12-07T08:24:31;32.77;;;16.80;;
6077;SDS011;3067;49.470;10.394;2023-12-07T08:26:58;44.90;;;19.97;;
6077;SDS011;3067;49.470;10.394;2023-12-07T08:29:27;74.67;;;30.90;;
6077;SDS011;3067;49.470;10.394;2023-12-07T08:31:54;40.57;;;19.47;;
6077;SDS011;3067;49.470;10.394;2023-12-07T08:34:21;37.60;;;17.07;;
6077;SDS011;3067;49.470;10.394;2023-12-07T08:36:48;36.17;;;16.70;;
6077;SDS011;3067;49.470;10.394;2023-12-07T08:39:15;35.20;;;16.30;;
6077;SDS011;3067;49.470;10.394;2023-12-07T08:41:42;39.10;;;16.57;;
6077;SDS011;3067;49.470;10.394;2023-12-07T08:44:09;32.60;;;16.53;;
6077;SDS011;3067;49.470;10.394;2023-12-07T08:46:38;35.13;;;16.60;;
6077;SDS011;3067;49.470;10.394;2023-12-07T08:49:08;32.50;;;16.80;;
6077;SDS011;3067;49.470;10.394;2023-12-07T08:51:35;35.73;;;17.13;;
6077;SDS011;3067;49.470;10.394;2023-12-07T08:54:03;37.50;;;17.30;;
6077;SDS011;3067;49.470;10.394;2023-12-07T08:56:30;36.77;;;16.10;;
6077;SDS011;3067;49.470;10.394;2023-12-07T08:58:57;32.37;;;16.27;;
6077;SDS011;3067;49.470;10.394;2023-12-07T09:01:25;35.23;;;15.80;;
6077;SDS011;3067;49.470;10.394;2023-12-07T09:03:54;31.83;;;16.83;;
6077;SDS011;3067;49.470;10.394;2023-12-07T09:06:21;34.40;;;16.37;;
6077;SDS011;3067;49.470;10.394;2023-12-07T09:08:48;30.37;;;15.80;;
6077;SDS011;3067;49.470;10.394;2023-12-07T09:11:15;32.13;;;15.77;;
6077;SDS011;3067;49.470;10.394;2023-12-07T09:13:42;33.60;;;16.87;;
6077;SDS011;3067;49.470;10.394;2023-12-07T09:16:09;30.67;;;15.10;;
6077;SDS011;3067;49.470;10.394;2023-12-07T09:18:36;29.67;;;14.73;;
6077;SDS011;3067;49.470;10.394;2023-12-07T09:21:05;27.60;;;15.47;;
6077;SDS011;3067;49.470;10.394;2023-12-07T09:23:32;27.63;;;14.27;;
6077;SDS011;3067;49.470;10.394;2023-12-07T09:26:02;26.80;;;14.73;;
6077;SDS011;3067;49.470;10.394;2023-12-07T09:28:30;26.40;;;14.40;;
6077;SDS011;3067;49.470;10.394;2023-12-07T09:30:58;26.77;;;14.60;;
6077;SDS011;3067;49.470;10.394;2023-12-07T09:33:25;31.03;;;13.67;;
6077;SDS011;3067;49.470;10.394;2023-12-07T09:35:53;19.20;;;12.43;;
6077;SDS011;3067;49.470;10.394;2023-12-07T09:38:21;19.97;;;11.90;;
6077;SDS011;3067;49.470;10.394;2023-12-07T09:40:52;22.23;;;12.90;;
6077;SDS011;3067;49.470;10.394;2023-12-07T09:43:19;22.43;;;12.00;;
6077;SDS011;3067;49.470;10.394;2023-12-07T09:45:47;24.53;;;12.50;;
6077;SDS011;3067;49.470;10.394;2023-12-07T09:48:15;23.60;;;13.47;;
6077;SDS011;3067;49.470;10.394;2023-12-07T09:50:44;25.50;;;14.37;;
6077;SDS011;3067;49.470;10.394;2023-12-07T09:53:11;21.20;;;12.27;;
6077;SDS011;3067;49.470;10.394;2023-12-07T09:55:39;22.23;;;12.10;;
6077;SDS011;3067;49.470;10.394;2023-12-07T09:58:06;22.70;;;12.00;;
6077;SDS011;3067;49.470;10.394;2023-12-07T10:00:33;26.40;;;11.90;;
6077;SDS011;3067;49.470;10.394;2023-12-07T10:03:00;27.00;;;12.93;;
6077;SDS011;3067;49.470;10.394;2023-12-07T10:05:27;25.10;;;13.10;;
6077;SDS011;3067;49.470;10.394;2023-12-07T10:07:55;22.67;;;12.23;;
6077;SDS011;3067;49.470;10.394;2023-12-07T10:10:22;27.37;;;14.07;;
6077;SDS011;3067;49.470;10.394;2023-12-07T10:12:52;26.70;;;12.80;;
6077;SDS011;3067;49.470;10.394;2023-12-07T10:15:20;25.37;;;13.50;;
6077;SDS011;3067;49.470;10.394;2023-12-07T10:17:49;24.57;;;13.10;;
6077;SDS011;3067;49.470;10.394;2023-12-07T10:20:17;21.83;;;12.23;;
6077;SDS011;3067;49.470;10.394;2023-12-07T10:22:48;19.30;;;11.37;;
6077;SDS011;3067;49.470;10.394;2023-12-07T10:25:26;25.67;;;13.67;;
6077;SDS011;3067;49.470;10.394;2023-12-07T10:27:55;24.53;;;13.63;;
6077;SDS011;3067;49.470;10.394;2023-12-07T10:30:22;28.70;;;13.50;;
6077;SDS011;3067;49.470;10.394;2023-12-07T10:32:51;21.57;;;12.87;;
6077;SDS011;3067;49.470;10.394;2023-12-07T10:35:18;27.57;;;13.00;;
6077;SDS011;3067;49.470;10.394;2023-12-07T10:37:46;25.63;;;12.50;;
6077;SDS011;3067;49.470;10.394;2023-12-07T10:40:13;21.47;;;12.57;;
6077;SDS011;3067;49.470;10.394;2023-12-07T10:42:42;20.70;;;11.67;;
6077;SDS011;3067;49.470;10.394;2023-12-07T10:45:14;21.07;;;12.73;;
6077;SDS011;3067;49.470;10.394;2023-12-07T10:47:43;21.40;;;11.47;;
6077;SDS011;3067;49.470;10.394;2023-12-07T10:50:10;22.57;;;13.03;;
6077;SDS011;3067;49.470;10.394;2023-12-07T10:52:42;21.30;;;12.30;;
6077;SDS011;3067;49.470;10.394;2023-12-07T10:55:13;20.43;;;12.37;;
6077;SDS011;3067;49.470;10.394;2023-12-07T10:57:43;25.47;;;11.90;;
6077;SDS011;3067;49.470;10.394;2023-12-07T11:00:14;23.87;;;12.40;;
6077;SDS011;3067;49.470;10.394;2023-12-07T11:02:42;22.83;;;12.87;;
6077;SDS011;3067;49.470;10.394;2023-12-07T11:05:11;20.93;;;11.57;;
6077;SDS011;3067;49.470;10.394;2023-12-07T11:07:41;17.73;;;11.13;;
6077;SDS011;3067;49.470;10.394;2023-12-07T11:10:18;23.77;;;12.03;;
6077;SDS011;3067;49.470;10.394;2023-12-07T11:12:53;26.80;;;12.73;;
6077;SDS011;3067;49.470;10.394;2023-12-07T11:15:28;20.33;;;12.40;;
6077;SDS011;3067;49.470;10.394;2023-12-07T11:17:55;23.30;;;11.90;;
6077;SDS011;3067;49.470;10.394;2023-12-07T11:20:31;19.67;;;12.57;;
6077;SDS011;3067;49.470;10.394;2023-12-07T11:22:59;24.53;;;13.30;;
6077;SDS011;3067;49.470;10.394;2023-12-07T11:25:26;25.30;;;13.67;;
6077;SDS011;3067;49.470;10.394;2023-12-07T11:27:59;23.37;;;13.33;;
6077;SDS011;3067;49.470;10.394;2023-12-07T11:30:28;29.07;;;13.70;;
6077;SDS011;3067;49.470;10.394;2023-12-07T11:32:57;23.03;;;13.57;;
6077;SDS011;3067;49.470;10.394;2023-12-07T11:35:24;27.90;;;15.93;;
6077;SDS011;3067;49.470;10.394;2023-12-07T11:38:04;23.93;;;14.07;;
6077;SDS011;3067;49.470;10.394;2023-12-07T11:40:36;23.60;;;14.10;;
6077;SDS011;3067;49.470;10.394;2023-12-07T11:43:07;24.17;;;13.87;;
6077;SDS011;3067;49.470;10.394;2023-12-07T11:45:39;25.70;;;14.53;;
6077;SDS011;3067;49.470;10.394;2023-12-07T11:48:10;25.33;;;14.20;;
6077;SDS011;3067;49.470;10.394;2023-12-07T11:50:53;24.80;;;15.00;;
6077;SDS011;3067;49.470;10.394;2023-12-07T11:53:25;24.70;;;14.90;;
6077;SDS011;3067;49.470;10.394;2023-12-07T11:55:54;25.30;;;14.30;;
6077;SDS011;3067;49.470;10.394;2023-12-07T11:58:22;23.60;;;13.13;;
6077;SDS011;3067;49.470;10.394;2023-12-07T12:00:52;26.97;;;14.47;;
6077;SDS011;3067;49.470;10.394;2023-12-07T12:03:21;27.27;;;15.47;;
6077;SDS011;3067;49.470;10.394;2023-12-07T12:05:48;23.87;;;13.80;;
6077;SDS011;3067;49.470;10.394;2023-12-07T12:08:16;23.23;;;13.40;;
6077;SDS011;3067;49.470;10.394;2023-12-07T12:10:44;24.03;;;13.30;;
6077;SDS011;3067;49.470;10.394;2023-12-07T12:13:12;27.40;;;14.33;;
6077;SDS011;3067;49.470;10.394;2023-12-07T12:15:39;25.37;;;14.20;;
6077;SDS011;3067;49.470;10.394;2023-12-07T12:18:08;23.87;;;14.30;;
6077;SDS011;3067;49.470;10.394;2023-12-07T12:20:35;26.60;;;14.07;;
6077;SDS011;3067;49.470;10.394;2023-12-07T12:23:02;21.83;;;13.17;;
6077;SDS011;3067;49.470;10.394;2023-12-07T12:25:30;23.07;;;13.00;;
6077;SDS011;3067;49.470;10.394;2023-12-07T12:27:58;22.30;;;13.53;;
6077;SDS011;3067;49.470;10.394;2023-12-07T12:30:28;24.27;;;13.50;;
6077;SDS011;3067;49.470;10.394;2023-12-07T12:32:56;27.10;;;15.03;;
6077;SDS011;3067;49.470;10.394;2023-12-07T12:35:26;24.80;;;15.17;;
6077;SDS011;3067;49.470;10.394;2023-12-07T12:37:53;25.67;;;15.17;;
6077;SDS011;3067;49.470;10.394;2023-12-07T12:40:22;24.03;;;14.70;;
6077;SDS011;3067;49.470;10.394;2023-12-07T12:42:50;24.03;;;15.07;;
6077;SDS011;3067;49.470;10.394;2023-12-07T12:45:18;25.03;;;15.03;;
6077;SDS011;3067;49.470;10.394;2023-12-07T12:47:46;30.03;;;15.50;;
6077;SDS011;3067;49.470;10.394;2023-12-07T12:53:02;22.70;;;14.00;;
6077;SDS011;3067;49.470;10.394;2023-12-07T12:55:30;21.23;;;13.53;;
6077;SDS011;3067;49.470;10.394;2023-12-07T12:57:59;23.77;;;13.80;;
6077;SDS011;3067;49.470;10.394;2023-12-07T13:00:26;20.77;;;14.43;;
6077;SDS011;3067;49.470;10.394;2023-12-07T13:02:53;24.10;;;14.97;;
6077;SDS011;3067;49.470;10.394;2023-12-07T13:05:21;23.87;;;14.60;;
6077;SDS011;3067;49.470;10.394;2023-12-07T13:07:49;24.57;;;15.77;;
6077;SDS011;3067;49.470;10.394;2023-12-07T13:10:16;41.70;;;23.70;;
6077;SDS011;3067;49.470;10.394;2023-12-07T13:12:43;23.53;;;16.93;;
6077;SDS011;3067;49.470;10.394;2023-12-07T13:15:11;28.57;;;18.20;;
6077;SDS011;3067;49.470;10.394;2023-12-07T13:17:38;24.73;;;16.30;;
6077;SDS011;3067;49.470;10.394;2023-12-07T13:20:06;21.33;;;14.70;;
6077;SDS011;3067;49.470;10.394;2023-12-07T13:22:35;21.87;;;15.53;;
6077;SDS011;3067;49.470;10.394;2023-12-07T13:25:05;18.53;;;15.07;;
6077;SDS011;3067;49.470;10.394;2023-12-07T13:27:33;20.90;;;15.60;;
6077;SDS011;3067;49.470;10.394;2023-12-07T13:30:00;22.57;;;15.70;;
6077;SDS011;3067;49.470;10.394;2023-12-07T13:32:30;24.77;;;16.17;;
6077;SDS011;3067;49.470;10.394;2023-12-07T13:34:57;25.37;;;16.73;;
6077;SDS011;3067;49.470;10.394;2023-12-07T13:37:24;22.87;;;16.17;;
6077;SDS011;3067;49.470;10.394;2023-12-07T13:39:51;23.23;;;15.37;;
6077;SDS011;3067;49.470;10.394;2023-12-07T13:42:24;25.20;;;16.10;;
6077;SDS011;3067;49.470;10.394;2023-12-07T13:44:53;24.93;;;14.67;;
6077;SDS011;3067;49.470;10.394;2023-12-07T13:47:22;24.27;;;14.77;;
6077;SDS011;3067;49.470;10.394;2023-12-07T13:49:53;19.77;;;13.53;;
6077;SDS011;3067;49.470;10.394;2023-12-07T13:52:21;23.60;;;12.60;;
6077;SDS011;3067;49.470;10.394;2023-12-07T13:54:48;24.23;;;12.87;;
6077;SDS011;3067;49.470;10.394;2023-12-07T13:57:16;21.03;;;12.87;;
6077;SDS011;3067;49.470;10.394;2023-12-07T13:59:44;21.20;;;12.50;;
6077;SDS011;3067;49.470;10.394;2023-12-07T14:02:12;21.23;;;12.73;;
6077;SDS011;3067;49.470;10.394;2023-12-07T14:04:40;20.90;;;12.87;;
6077;SDS011;3067;49.470;10.394;2023-12-07T14:07:07;21.57;;;11.83;;
6077;SDS011;3067;49.470;10.394;2023-12-07T14:09:35;20.23;;;12.23;;
6077;SDS011;3067;49.470;10.394;2023-12-07T14:12:03;20.63;;;12.30;;
6077;SDS011;3067;49.470;10.394;2023-12-07T14:14:30;19.37;;;12.20;;
6077;SDS011;3067;49.470;10.394;2023-12-07T14:16:59;19.67;;;11.93;;
6077;SDS011;3067;49.470;10.394;2023-12-07T14:19:26;20.87;;;12.80;;
6077;SDS011;3067;49.470;10.394;2023-12-07T14:21:53;19.87;;;11.57;;
6077;SDS011;3067;49.470;10.394;2023-12-07T14:24:22;24.70;;;14.10;;
6077;SDS011;3067;49.470;10.394;2023-12-07T14:26:49;21.20;;;12.50;;
6077;SDS011;3067;49.470;10.394;2023-12-07T14:29:16;21.80;;;12.77;;
6077;SDS011;3067;49.470;10.394;2023-12-07T14:31:45;30.67;;;12.90;;
6077;SDS011;3067;49.470;10.394;2023-12-07T14:34:15;20.47;;;11.47;;
6077;SDS011;3067;49.470;10.394;2023-12-07T14:36:43;23.10;;;13.43;;
6077;SDS011;3067;49.470;10.394;2023-12-07T14:39:11;22.13;;;12.37;;
6077;SDS011;3067;49.470;10.394;2023-12-07T14:41:42;17.70;;;11.20;;
6077;SDS011;3067;49.470;10.394;2023-12-07T14:44:12;22.53;;;12.80;;